Disclaimer

Please do not use the information listed here in-flight or in-navigation, as they are not provided to us by the airports but are provided by volunteers, so they might be outdated.

Search


Regions


Airport information page

Radio informations:
REMOTE - 118.3 MHz

Airport informations:
Latitude: 27° 02' 38.27" N
Longitude: 128° 24' 05.46" E
Elevation: 52 feet - 16 meters
Operating hours: Remarks
Operating agency: Civil government, landing fees and diplomatic clearance may be required
Timezone: UTC+9
Fuel: N/A

Runway information:
14/32 - 4340 x 100 feet< - >1323 x 30 meters

Recent METARs:
RORY 202300Z AUTO 11010KT 9999 FEW036 SCT120 22/15 Q1018
RORY 210000Z AUTO 11012KT 9999 SCT031 BKN050 23/17 Q1019
RORY 210000Z AUTO 11012KT 9999 SCT031 BKN050 23/17 Q1019

Airport on the map: